Lewistown Municipal Airport
KLWT : now visible

Airfield :











YOU CAN JOIN US ON...

 
LOGIN :

Register | Disclaimer

   EN    FR    IT 

 









Legend :    VFR   Marginal VFR   IFR   Intensive IFR   Very Intensive IFR
Visi :
Ceiling :
>= 8 km
>= 3000ft
5 to 8 km
1000 to 3000 ft
1500m to 5 km
500 to 1000 ft
800 to 1500m
200 to 500 ft
< 800m
< 200 ft
Symbols :   Thunderstorms  Fog  Heavy snow  Heavy precipitations  Wind > 20 kt






- Airport Elevation : 4170 ft
- IATA code : LWT


KLWT - Lewistown Municipal

CURRENT METAR :
  • 220254Z AUTO 31010G22KT 9SM OVC004 M04/M05 A3003 RMK AO2 CIG 002V007 SLP204 T10391050 53030

EXPIRED METARs :
  • 220209Z AUTO 31012G22KT 10SM BKN003 OVC007 M04/M05 A2999 RMK AO2 CIG 002V006 T10391050
  • 220154Z AUTO 31013G22KT 10SM OVC007 M04/M05 A2999 RMK AO2 CIG 004V008 SLP193 T10391050
  • 220054Z AUTO 30010KT 10SM OVC005 M03/M04 A2995 RMK AO2 SLP180 T10281039

TAF KLWT
Valid from the 22 at 03:00 until the 23 at 00:00 UTC


220244Z 2203/2224 32010G18KT 6SM -SN BR SCT004 OVC008
TEMPO 2203/2206 2SM -SN BR BKN003
FM220600 33011KT 1SM -SN BR SCT002 OVC004
FM221500 32009KT 4SM -SN BR SCT004 OVC008
FM221800 32009KT P6SM SCT010 BKN020
KZLC FIR / North America



MET'MAP, your aeronautical weather chart ! - Copyright ORBIFLY December 2007 - Disclaimer

ORBIFLY MET'MAP TEAM :

Programming & Development : Alexandra Zaïnal
Concept & original design : Baudouin d'Aumeries
Assistance for programming : Marc-Olivier Méhu
Technical & hardware support : Manuel Goepfert

Contact : metmap@orbifly.com




SOURCES & CREDITS :

   NOAA       Earth
Advisory